sensor_id;sensor_type;location;lat;lon;timestamp;P1;durP1;ratioP1;P2;durP2;ratioP2
22673;SDS011;11504;43.334;21.918;2022-09-29T00:01:26;9.0;;;8.0;;
22673;SDS011;11504;43.334;21.918;2022-09-29T00:06:11;9.0;;;8.0;;
22673;SDS011;11504;43.334;21.918;2022-09-29T00:10:53;9.0;;;8.0;;
22673;SDS011;11504;43.334;21.918;2022-09-29T00:15:32;10.0;;;8.0;;
22673;SDS011;11504;43.334;21.918;2022-09-29T00:20:09;10.0;;;8.0;;
22673;SDS011;11504;43.334;21.918;2022-09-29T00:24:46;8.0;;;7.0;;
22673;SDS011;11504;43.334;21.918;2022-09-29T00:29:24;8.0;;;7.0;;
22673;SDS011;11504;43.334;21.918;2022-09-29T00:34:02;7.0;;;6.0;;
22673;SDS011;11504;43.334;21.918;2022-09-29T00:38:42;7.0;;;6.0;;
22673;SDS011;11504;43.334;21.918;2022-09-29T00:43:49;8.0;;;8.0;;
22673;SDS011;11504;43.334;21.918;2022-09-29T00:48:32;8.0;;;8.0;;
22673;SDS011;11504;43.334;21.918;2022-09-29T00:53:12;9.0;;;9.0;;
22673;SDS011;11504;43.334;21.918;2022-09-29T00:58:01;9.0;;;9.0;;
22673;SDS011;11504;43.334;21.918;2022-09-29T01:03:01;10.0;;;10.0;;
22673;SDS011;11504;43.334;21.918;2022-09-29T01:07:51;10.0;;;10.0;;
22673;SDS011;11504;43.334;21.918;2022-09-29T01:12:29;12.0;;;11.0;;
22673;SDS011;11504;43.334;21.918;2022-09-29T01:17:06;12.0;;;11.0;;
22673;SDS011;11504;43.334;21.918;2022-09-29T01:22:06;12.0;;;11.0;;
22673;SDS011;11504;43.334;21.918;2022-09-29T01:28:01;12.0;;;11.0;;
22673;SDS011;11504;43.334;21.918;2022-09-29T01:34:10;12.0;;;11.0;;
22673;SDS011;11504;43.334;21.918;2022-09-29T01:39:30;12.0;;;11.0;;
22673;SDS011;11504;43.334;21.918;2022-09-29T01:44:40;12.0;;;11.0;;
22673;SDS011;11504;43.334;21.918;2022-09-29T01:49:44;12.0;;;11.0;;
22673;SDS011;11504;43.334;21.918;2022-09-29T01:54:49;11.0;;;11.0;;
22673;SDS011;11504;43.334;21.918;2022-09-29T01:59:49;11.0;;;11.0;;
22673;SDS011;11504;43.334;21.918;2022-09-29T02:04:49;12.0;;;11.0;;
22673;SDS011;11504;43.334;21.918;2022-09-29T02:09:41;12.0;;;11.0;;
22673;SDS011;11504;43.334;21.918;2022-09-29T02:14:32;12.0;;;11.0;;
22673;SDS011;11504;43.334;21.918;2022-09-29T02:19:24;12.0;;;11.0;;
22673;SDS011;11504;43.334;21.918;2022-09-29T02:24:06;11.0;;;10.0;;
22673;SDS011;11504;43.334;21.918;2022-09-29T02:28:44;11.0;;;10.0;;
22673;SDS011;11504;43.334;21.918;2022-09-29T02:33:24;10.0;;;9.0;;
22673;SDS011;11504;43.334;21.918;2022-09-29T02:38:09;10.0;;;9.0;;
22673;SDS011;11504;43.334;21.918;2022-09-29T02:43:28;9.0;;;8.0;;
22673;SDS011;11504;43.334;21.918;2022-09-29T02:49:22;9.0;;;8.0;;
22673;SDS011;11504;43.334;21.918;2022-09-29T02:55:12;8.0;;;8.0;;
22673;SDS011;11504;43.334;21.918;2022-09-29T03:00:19;8.0;;;8.0;;
22673;SDS011;11504;43.334;21.918;2022-09-29T03:04:58;7.0;;;7.0;;
22673;SDS011;11504;43.334;21.918;2022-09-29T03:09:36;7.0;;;7.0;;
22673;SDS011;11504;43.334;21.918;2022-09-29T03:14:13;6.0;;;6.0;;
22673;SDS011;11504;43.334;21.918;2022-09-29T03:18:49;6.0;;;6.0;;
22673;SDS011;11504;43.334;21.918;2022-09-29T03:23:26;8.0;;;8.0;;
22673;SDS011;11504;43.334;21.918;2022-09-29T03:28:03;8.0;;;8.0;;
22673;SDS011;11504;43.334;21.918;2022-09-29T03:32:39;11.0;;;10.0;;
22673;SDS011;11504;43.334;21.918;2022-09-29T03:37:19;11.0;;;10.0;;
22673;SDS011;11504;43.334;21.918;2022-09-29T03:41:55;12.0;;;10.0;;
22673;SDS011;11504;43.334;21.918;2022-09-29T03:46:32;12.0;;;10.0;;
22673;SDS011;11504;43.334;21.918;2022-09-29T03:51:09;12.0;;;11.0;;
22673;SDS011;11504;43.334;21.918;2022-09-29T03:55:47;12.0;;;11.0;;
22673;SDS011;11504;43.334;21.918;2022-09-29T04:00:26;12.0;;;11.0;;
22673;SDS011;11504;43.334;21.918;2022-09-29T04:05:04;12.0;;;12.0;;
22673;SDS011;11504;43.334;21.918;2022-09-29T04:09:43;12.0;;;12.0;;
22673;SDS011;11504;43.334;21.918;2022-09-29T04:14:20;13.0;;;12.0;;
22673;SDS011;11504;43.334;21.918;2022-09-29T04:18:57;13.0;;;12.0;;
22673;SDS011;11504;43.334;21.918;2022-09-29T04:23:35;11.0;;;10.0;;
22673;SDS011;11504;43.334;21.918;2022-09-29T04:28:13;11.0;;;10.0;;
22673;SDS011;11504;43.334;21.918;2022-09-29T04:32:49;9.0;;;9.0;;
22673;SDS011;11504;43.334;21.918;2022-09-29T04:37:27;9.0;;;9.0;;
22673;SDS011;11504;43.334;21.918;2022-09-29T04:42:04;10.0;;;10.0;;
22673;SDS011;11504;43.334;21.918;2022-09-29T04:46:41;10.0;;;10.0;;
22673;SDS011;11504;43.334;21.918;2022-09-29T04:51:18;11.0;;;11.0;;
22673;SDS011;11504;43.334;21.918;2022-09-29T04:55:54;11.0;;;11.0;;
22673;SDS011;11504;43.334;21.918;2022-09-29T05:00:30;11.0;;;11.0;;
22673;SDS011;11504;43.334;21.918;2022-09-29T05:05:09;12.0;;;12.0;;
22673;SDS011;11504;43.334;21.918;2022-09-29T05:09:46;12.0;;;12.0;;
22673;SDS011;11504;43.334;21.918;2022-09-29T05:14:22;14.0;;;13.0;;
22673;SDS011;11504;43.334;21.918;2022-09-29T05:18:59;14.0;;;13.0;;
22673;SDS011;11504;43.334;21.918;2022-09-29T05:23:35;13.0;;;12.0;;
22673;SDS011;11504;43.334;21.918;2022-09-29T05:28:13;13.0;;;12.0;;
22673;SDS011;11504;43.334;21.918;2022-09-29T05:32:50;12.0;;;12.0;;
22673;SDS011;11504;43.334;21.918;2022-09-29T05:37:28;12.0;;;12.0;;
22673;SDS011;11504;43.334;21.918;2022-09-29T05:42:10;13.0;;;12.0;;
22673;SDS011;11504;43.334;21.918;2022-09-29T05:46:48;13.0;;;12.0;;
22673;SDS011;11504;43.334;21.918;2022-09-29T05:51:25;14.0;;;13.0;;
22673;SDS011;11504;43.334;21.918;2022-09-29T05:56:06;14.0;;;13.0;;
22673;SDS011;11504;43.334;21.918;2022-09-29T06:00:50;14.0;;;13.0;;
22673;SDS011;11504;43.334;21.918;2022-09-29T06:05:28;14.0;;;12.0;;
22673;SDS011;11504;43.334;21.918;2022-09-29T06:10:05;14.0;;;12.0;;
22673;SDS011;11504;43.334;21.918;2022-09-29T06:14:44;13.0;;;12.0;;
22673;SDS011;11504;43.334;21.918;2022-09-29T06:19:21;13.0;;;12.0;;
22673;SDS011;11504;43.334;21.918;2022-09-29T06:23:57;14.0;;;13.0;;
22673;SDS011;11504;43.334;21.918;2022-09-29T06:28:35;14.0;;;13.0;;
22673;SDS011;11504;43.334;21.918;2022-09-29T06:33:13;14.0;;;14.0;;
22673;SDS011;11504;43.334;21.918;2022-09-29T06:37:52;14.0;;;14.0;;
22673;SDS011;11504;43.334;21.918;2022-09-29T06:42:30;32.0;;;30.0;;
22673;SDS011;11504;43.334;21.918;2022-09-29T06:47:07;32.0;;;30.0;;
22673;SDS011;11504;43.334;21.918;2022-09-29T06:51:45;49.0;;;46.0;;
22673;SDS011;11504;43.334;21.918;2022-09-29T06:56:23;49.0;;;46.0;;
22673;SDS011;11504;43.334;21.918;2022-09-29T07:01:06;49.0;;;46.0;;
22673;SDS011;11504;43.334;21.918;2022-09-29T07:05:44;37.0;;;34.0;;
22673;SDS011;11504;43.334;21.918;2022-09-29T07:10:21;37.0;;;34.0;;
22673;SDS011;11504;43.334;21.918;2022-09-29T07:14:58;25.0;;;23.0;;
22673;SDS011;11504;43.334;21.918;2022-09-29T07:19:35;25.0;;;23.0;;
22673;SDS011;11504;43.334;21.918;2022-09-29T07:24:12;28.0;;;26.0;;
22673;SDS011;11504;43.334;21.918;2022-09-29T07:28:48;28.0;;;26.0;;
22673;SDS011;11504;43.334;21.918;2022-09-29T07:33:25;32.0;;;30.0;;
22673;SDS011;11504;43.334;21.918;2022-09-29T07:38:02;32.0;;;30.0;;
22673;SDS011;11504;43.334;21.918;2022-09-29T07:42:38;30.0;;;28.0;;
22673;SDS011;11504;43.334;21.918;2022-09-29T07:47:15;30.0;;;28.0;;
22673;SDS011;11504;43.334;21.918;2022-09-29T07:51:51;27.0;;;25.0;;
22673;SDS011;11504;43.334;21.918;2022-09-29T07:56:28;27.0;;;25.0;;
22673;SDS011;11504;43.334;21.918;2022-09-29T08:01:09;27.0;;;25.0;;
22673;SDS011;11504;43.334;21.918;2022-09-29T08:05:49;23.0;;;22.0;;
22673;SDS011;11504;43.334;21.918;2022-09-29T08:10:27;23.0;;;22.0;;
22673;SDS011;11504;43.334;21.918;2022-09-29T08:15:08;19.0;;;18.0;;
22673;SDS011;11504;43.334;21.918;2022-09-29T08:19:46;19.0;;;18.0;;
22673;SDS011;11504;43.334;21.918;2022-09-29T08:24:22;20.0;;;19.0;;
22673;SDS011;11504;43.334;21.918;2022-09-29T08:28:59;20.0;;;19.0;;
22673;SDS011;11504;43.334;21.918;2022-09-29T08:33:37;21.0;;;20.0;;
22673;SDS011;11504;43.334;21.918;2022-09-29T08:38:14;21.0;;;20.0;;
22673;SDS011;11504;43.334;21.918;2022-09-29T08:43:04;20.0;;;20.0;;
22673;SDS011;11504;43.334;21.918;2022-09-29T08:48:10;20.0;;;20.0;;
22673;SDS011;11504;43.334;21.918;2022-09-29T08:53:07;20.0;;;19.0;;
22673;SDS011;11504;43.334;21.918;2022-09-29T08:57:57;20.0;;;19.0;;
22673;SDS011;11504;43.334;21.918;2022-09-29T09:03:04;20.0;;;20.0;;
22673;SDS011;11504;43.334;21.918;2022-09-29T09:08:28;20.0;;;20.0;;
22673;SDS011;11504;43.334;21.918;2022-09-29T09:14:06;21.0;;;20.0;;
22673;SDS011;11504;43.334;21.918;2022-09-29T09:19:44;21.0;;;20.0;;
22673;SDS011;11504;43.334;21.918;2022-09-29T09:25:26;24.0;;;22.0;;
22673;SDS011;11504;43.334;21.918;2022-09-29T09:30:16;24.0;;;22.0;;
22673;SDS011;11504;43.334;21.918;2022-09-29T09:35:25;26.0;;;25.0;;
22673;SDS011;11504;43.334;21.918;2022-09-29T09:40:26;26.0;;;25.0;;
22673;SDS011;11504;43.334;21.918;2022-09-29T09:45:35;31.0;;;30.0;;
22673;SDS011;11504;43.334;21.918;2022-09-29T09:50:34;31.0;;;30.0;;
22673;SDS011;11504;43.334;21.918;2022-09-29T09:55:21;36.0;;;34.0;;
22673;SDS011;11504;43.334;21.918;2022-09-29T10:00:11;36.0;;;34.0;;
22673;SDS011;11504;43.334;21.918;2022-09-29T10:04:57;31.0;;;30.0;;
22673;SDS011;11504;43.334;21.918;2022-09-29T10:09:34;31.0;;;30.0;;
22673;SDS011;11504;43.334;21.918;2022-09-29T10:14:18;26.0;;;25.0;;
22673;SDS011;11504;43.334;21.918;2022-09-29T10:19:00;26.0;;;25.0;;
22673;SDS011;11504;43.334;21.918;2022-09-29T10:23:36;22.0;;;20.0;;
22673;SDS011;11504;43.334;21.918;2022-09-29T10:28:13;22.0;;;20.0;;
22673;SDS011;11504;43.334;21.918;2022-09-29T10:32:58;17.0;;;16.0;;
22673;SDS011;11504;43.334;21.918;2022-09-29T10:37:46;17.0;;;16.0;;
22673;SDS011;11504;43.334;21.918;2022-09-29T10:42:45;16.0;;;16.0;;
22673;SDS011;11504;43.334;21.918;2022-09-29T10:47:26;16.0;;;16.0;;
22673;SDS011;11504;43.334;21.918;2022-09-29T10:52:21;16.0;;;15.0;;
22673;SDS011;11504;43.334;21.918;2022-09-29T10:57:13;16.0;;;15.0;;
22673;SDS011;11504;43.334;21.918;2022-09-29T11:02:03;16.0;;;16.0;;
22673;SDS011;11504;43.334;21.918;2022-09-29T11:06:41;16.0;;;16.0;;
22673;SDS011;11504;43.334;21.918;2022-09-29T11:11:25;16.0;;;16.0;;
22673;SDS011;11504;43.334;21.918;2022-09-29T11:16:16;17.0;;;16.0;;
22673;SDS011;11504;43.334;21.918;2022-09-29T11:21:57;16.0;;;14.0;;
22673;SDS011;11504;43.334;21.918;2022-09-29T11:28:50;16.0;;;14.0;;
22673;SDS011;11504;43.334;21.918;2022-09-29T11:34:49;14.0;;;13.0;;
22673;SDS011;11504;43.334;21.918;2022-09-29T11:40:17;14.0;;;13.0;;
22673;SDS011;11504;43.334;21.918;2022-09-29T11:45:29;14.0;;;12.0;;
22673;SDS011;11504;43.334;21.918;2022-09-29T11:50:43;14.0;;;12.0;;
22673;SDS011;11504;43.334;21.918;2022-09-29T11:56:03;13.0;;;12.0;;
22673;SDS011;11504;43.334;21.918;2022-09-29T12:01:44;16.0;;;14.0;;
22673;SDS011;11504;43.334;21.918;2022-09-29T12:07:48;16.0;;;14.0;;
22673;SDS011;11504;43.334;21.918;2022-09-29T12:13:21;18.0;;;16.0;;
22673;SDS011;11504;43.334;21.918;2022-09-29T12:18:38;18.0;;;16.0;;
22673;SDS011;11504;43.334;21.918;2022-09-29T12:23:36;18.0;;;16.0;;
22673;SDS011;11504;43.334;21.918;2022-09-29T12:28:33;18.0;;;16.0;;
22673;SDS011;11504;43.334;21.918;2022-09-29T12:33:38;17.0;;;16.0;;
22673;SDS011;11504;43.334;21.918;2022-09-29T12:38:40;17.0;;;16.0;;
22673;SDS011;11504;43.334;21.918;2022-09-29T12:43:34;17.0;;;16.0;;
22673;SDS011;11504;43.334;21.918;2022-09-29T12:48:50;17.0;;;16.0;;
22673;SDS011;11504;43.334;21.918;2022-09-29T12:54:05;17.0;;;15.0;;
22673;SDS011;11504;43.334;21.918;2022-09-29T12:59:03;17.0;;;15.0;;
22673;SDS011;11504;43.334;21.918;2022-09-29T13:05:30;16.0;;;14.0;;
22673;SDS011;11504;43.334;21.918;2022-09-29T13:11:20;16.0;;;14.0;;
22673;SDS011;11504;43.334;21.918;2022-09-29T13:17:05;14.0;;;14.0;;
22673;SDS011;11504;43.334;21.918;2022-09-29T13:23:14;11.0;;;11.0;;
22673;SDS011;11504;43.334;21.918;2022-09-29T13:28:41;11.0;;;11.0;;
22673;SDS011;11504;43.334;21.918;2022-09-29T13:33:35;8.0;;;8.0;;
22673;SDS011;11504;43.334;21.918;2022-09-29T13:38:20;8.0;;;8.0;;
22673;SDS011;11504;43.334;21.918;2022-09-29T13:43:36;8.0;;;8.0;;
22673;SDS011;11504;43.334;21.918;2022-09-29T13:48:52;8.0;;;8.0;;
22673;SDS011;11504;43.334;21.918;2022-09-29T13:54:27;8.0;;;7.0;;
22673;SDS011;11504;43.334;21.918;2022-09-29T13:59:22;8.0;;;7.0;;
22673;SDS011;11504;43.334;21.918;2022-09-29T14:05:45;8.0;;;6.0;;
22673;SDS011;11504;43.334;21.918;2022-09-29T14:10:50;8.0;;;6.0;;
22673;SDS011;11504;43.334;21.918;2022-09-29T14:16:22;7.0;;;6.0;;
22673;SDS011;11504;43.334;21.918;2022-09-29T14:21:59;8.0;;;7.0;;
22673;SDS011;11504;43.334;21.918;2022-09-29T14:26:44;8.0;;;7.0;;
22673;SDS011;11504;43.334;21.918;2022-09-29T14:31:30;8.0;;;7.0;;
22673;SDS011;11504;43.334;21.918;2022-09-29T14:36:15;8.0;;;8.0;;
22673;SDS011;11504;43.334;21.918;2022-09-29T14:41:17;8.0;;;8.0;;
22673;SDS011;11504;43.334;21.918;2022-09-29T14:46:35;8.0;;;8.0;;
22673;SDS011;11504;43.334;21.918;2022-09-29T14:52:44;9.0;;;8.0;;
22673;SDS011;11504;43.334;21.918;2022-09-29T14:58:36;9.0;;;8.0;;
22673;SDS011;11504;43.334;21.918;2022-09-29T15:04:10;10.0;;;10.0;;
22673;SDS011;11504;43.334;21.918;2022-09-29T15:08:58;10.0;;;10.0;;
22673;SDS011;11504;43.334;21.918;2022-09-29T15:13:54;12.0;;;11.0;;
22673;SDS011;11504;43.334;21.918;2022-09-29T15:19:04;12.0;;;11.0;;
22673;SDS011;11504;43.334;21.918;2022-09-29T15:24:43;11.0;;;10.0;;
22673;SDS011;11504;43.334;21.918;2022-09-29T15:29:56;11.0;;;10.0;;
22673;SDS011;11504;43.334;21.918;2022-09-29T15:34:37;10.0;;;10.0;;
22673;SDS011;11504;43.334;21.918;2022-09-29T15:39:43;10.0;;;10.0;;
22673;SDS011;11504;43.334;21.918;2022-09-29T15:44:28;10.0;;;10.0;;
22673;SDS011;11504;43.334;21.918;2022-09-29T15:49:15;10.0;;;10.0;;
22673;SDS011;11504;43.334;21.918;2022-09-29T15:53:56;10.0;;;9.0;;
22673;SDS011;11504;43.334;21.918;2022-09-29T15:58:42;10.0;;;9.0;;
22673;SDS011;11504;43.334;21.918;2022-09-29T16:03:29;10.0;;;9.0;;
22673;SDS011;11504;43.334;21.918;2022-09-29T16:08:26;10.0;;;9.0;;
22673;SDS011;11504;43.334;21.918;2022-09-29T16:13:23;9.0;;;9.0;;
22673;SDS011;11504;43.334;21.918;2022-09-29T16:18:32;9.0;;;9.0;;
22673;SDS011;11504;43.334;21.918;2022-09-29T16:23:35;8.0;;;8.0;;
22673;SDS011;11504;43.334;21.918;2022-09-29T16:28:26;8.0;;;8.0;;
22673;SDS011;11504;43.334;21.918;2022-09-29T16:33:15;8.0;;;8.0;;
22673;SDS011;11504;43.334;21.918;2022-09-29T16:37:58;8.0;;;8.0;;
22673;SDS011;11504;43.334;21.918;2022-09-29T16:42:35;10.0;;;9.0;;
22673;SDS011;11504;43.334;21.918;2022-09-29T16:47:18;10.0;;;9.0;;
22673;SDS011;11504;43.334;21.918;2022-09-29T16:52:15;11.0;;;10.0;;
22673;SDS011;11504;43.334;21.918;2022-09-29T16:57:22;11.0;;;10.0;;
22673;SDS011;11504;43.334;21.918;2022-09-29T17:02:09;14.0;;;13.0;;
22673;SDS011;11504;43.334;21.918;2022-09-29T17:06:48;14.0;;;13.0;;
22673;SDS011;11504;43.334;21.918;2022-09-29T17:11:25;14.0;;;13.0;;
22673;SDS011;11504;43.334;21.918;2022-09-29T17:16:05;18.0;;;16.0;;
22673;SDS011;11504;43.334;21.918;2022-09-29T17:20:43;18.0;;;16.0;;
22673;SDS011;11504;43.334;21.918;2022-09-29T17:25:22;20.0;;;18.0;;
22673;SDS011;11504;43.334;21.918;2022-09-29T17:29:59;20.0;;;18.0;;
22673;SDS011;11504;43.334;21.918;2022-09-29T17:34:35;22.0;;;21.0;;
22673;SDS011;11504;43.334;21.918;2022-09-29T17:39:12;22.0;;;21.0;;
22673;SDS011;11504;43.334;21.918;2022-09-29T17:43:49;20.0;;;18.0;;
22673;SDS011;11504;43.334;21.918;2022-09-29T17:48:28;20.0;;;18.0;;
22673;SDS011;11504;43.334;21.918;2022-09-29T17:53:07;17.0;;;16.0;;
22673;SDS011;11504;43.334;21.918;2022-09-29T17:57:44;17.0;;;16.0;;
22673;SDS011;11504;43.334;21.918;2022-09-29T18:02:21;13.0;;;12.0;;
22673;SDS011;11504;43.334;21.918;2022-09-29T18:06:57;13.0;;;12.0;;
22673;SDS011;11504;43.334;21.918;2022-09-29T18:11:33;13.0;;;12.0;;
22673;SDS011;11504;43.334;21.918;2022-09-29T18:16:14;9.0;;;8.0;;
22673;SDS011;11504;43.334;21.918;2022-09-29T18:20:55;9.0;;;8.0;;
22673;SDS011;11504;43.334;21.918;2022-09-29T18:25:33;10.0;;;8.0;;
22673;SDS011;11504;43.334;21.918;2022-09-29T18:30:18;10.0;;;8.0;;
22673;SDS011;11504;43.334;21.918;2022-09-29T18:35:01;10.0;;;9.0;;
22673;SDS011;11504;43.334;21.918;2022-09-29T18:39:48;10.0;;;9.0;;
22673;SDS011;11504;43.334;21.918;2022-09-29T18:44:25;11.0;;;10.0;;
22673;SDS011;11504;43.334;21.918;2022-09-29T18:49:02;11.0;;;10.0;;
22673;SDS011;11504;43.334;21.918;2022-09-29T18:53:39;12.0;;;11.0;;
22673;SDS011;11504;43.334;21.918;2022-09-29T18:58:20;12.0;;;11.0;;
22673;SDS011;11504;43.334;21.918;2022-09-29T19:02:57;12.0;;;11.0;;
22673;SDS011;11504;43.334;21.918;2022-09-29T19:07:35;12.0;;;11.0;;
22673;SDS011;11504;43.334;21.918;2022-09-29T19:12:12;11.0;;;11.0;;
22673;SDS011;11504;43.334;21.918;2022-09-29T19:16:49;11.0;;;11.0;;
22673;SDS011;11504;43.334;21.918;2022-09-29T19:21:26;11.0;;;11.0;;
22673;SDS011;11504;43.334;21.918;2022-09-29T19:26:10;12.0;;;11.0;;
22673;SDS011;11504;43.334;21.918;2022-09-29T19:31:07;12.0;;;11.0;;
22673;SDS011;11504;43.334;21.918;2022-09-29T19:36:01;12.0;;;11.0;;
22673;SDS011;11504;43.334;21.918;2022-09-29T19:40:48;12.0;;;11.0;;
22673;SDS011;11504;43.334;21.918;2022-09-29T19:45:25;12.0;;;10.0;;
22673;SDS011;11504;43.334;21.918;2022-09-29T19:50:06;12.0;;;10.0;;
22673;SDS011;11504;43.334;21.918;2022-09-29T19:54:45;11.0;;;10.0;;
22673;SDS011;11504;43.334;21.918;2022-09-29T19:59:27;11.0;;;10.0;;
22673;SDS011;11504;43.334;21.918;2022-09-29T20:04:13;11.0;;;10.0;;
22673;SDS011;11504;43.334;21.918;2022-09-29T20:08:56;11.0;;;10.0;;
22673;SDS011;11504;43.334;21.918;2022-09-29T20:13:36;11.0;;;10.0;;
22673;SDS011;11504;43.334;21.918;2022-09-29T20:18:15;11.0;;;10.0;;
22673;SDS011;11504;43.334;21.918;2022-09-29T20:22:52;14.0;;;13.0;;
22673;SDS011;11504;43.334;21.918;2022-09-29T20:27:30;14.0;;;13.0;;
22673;SDS011;11504;43.334;21.918;2022-09-29T20:32:06;16.0;;;16.0;;
22673;SDS011;11504;43.334;21.918;2022-09-29T20:36:44;16.0;;;16.0;;
22673;SDS011;11504;43.334;21.918;2022-09-29T20:41:22;16.0;;;16.0;;
22673;SDS011;11504;43.334;21.918;2022-09-29T20:46:02;23.0;;;22.0;;
22673;SDS011;11504;43.334;21.918;2022-09-29T20:50:43;23.0;;;22.0;;
22673;SDS011;11504;43.334;21.918;2022-09-29T20:55:20;30.0;;;28.0;;
22673;SDS011;11504;43.334;21.918;2022-09-29T20:59:57;30.0;;;28.0;;
22673;SDS011;11504;43.334;21.918;2022-09-29T21:04:33;26.0;;;24.0;;
22673;SDS011;11504;43.334;21.918;2022-09-29T21:09:14;26.0;;;24.0;;
22673;SDS011;11504;43.334;21.918;2022-09-29T21:13:56;22.0;;;21.0;;
22673;SDS011;11504;43.334;21.918;2022-09-29T21:18:33;22.0;;;21.0;;
22673;SDS011;11504;43.334;21.918;2022-09-29T21:23:11;24.0;;;22.0;;
22673;SDS011;11504;43.334;21.918;2022-09-29T21:27:48;24.0;;;22.0;;
22673;SDS011;11504;43.334;21.918;2022-09-29T21:32:25;25.0;;;23.0;;
22673;SDS011;11504;43.334;21.918;2022-09-29T21:37:03;25.0;;;23.0;;
22673;SDS011;11504;43.334;21.918;2022-09-29T21:41:43;25.0;;;23.0;;
22673;SDS011;11504;43.334;21.918;2022-09-29T21:46:25;20.0;;;18.0;;
22673;SDS011;11504;43.334;21.918;2022-09-29T21:51:12;20.0;;;18.0;;
22673;SDS011;11504;43.334;21.918;2022-09-29T21:56:02;14.0;;;13.0;;
22673;SDS011;11504;43.334;21.918;2022-09-29T22:00:47;14.0;;;13.0;;
22673;SDS011;11504;43.334;21.918;2022-09-29T22:05:24;15.0;;;14.0;;
22673;SDS011;11504;43.334;21.918;2022-09-29T22:10:01;15.0;;;14.0;;
22673;SDS011;11504;43.334;21.918;2022-09-29T22:14:39;16.0;;;15.0;;
22673;SDS011;11504;43.334;21.918;2022-09-29T22:19:16;16.0;;;15.0;;
22673;SDS011;11504;43.334;21.918;2022-09-29T22:23:56;14.0;;;13.0;;
22673;SDS011;11504;43.334;21.918;2022-09-29T22:28:39;14.0;;;13.0;;
22673;SDS011;11504;43.334;21.918;2022-09-29T22:33:21;12.0;;;11.0;;
22673;SDS011;11504;43.334;21.918;2022-09-29T22:37:57;12.0;;;11.0;;
22673;SDS011;11504;43.334;21.918;2022-09-29T22:42:35;12.0;;;10.0;;
22673;SDS011;11504;43.334;21.918;2022-09-29T22:47:12;12.0;;;10.0;;
22673;SDS011;11504;43.334;21.918;2022-09-29T22:51:48;12.0;;;10.0;;
22673;SDS011;11504;43.334;21.918;2022-09-29T22:56:26;11.0;;;10.0;;
22673;SDS011;11504;43.334;21.918;2022-09-29T23:01:08;11.0;;;10.0;;
22673;SDS011;11504;43.334;21.918;2022-09-29T23:05:57;12.0;;;10.0;;
22673;SDS011;11504;43.334;21.918;2022-09-29T23:10:36;12.0;;;10.0;;
22673;SDS011;11504;43.334;21.918;2022-09-29T23:15:19;12.0;;;11.0;;
22673;SDS011;11504;43.334;21.918;2022-09-29T23:19:57;12.0;;;11.0;;
22673;SDS011;11504;43.334;21.918;2022-09-29T23:24:34;11.0;;;10.0;;
22673;SDS011;11504;43.334;21.918;2022-09-29T23:29:12;11.0;;;10.0;;
22673;SDS011;11504;43.334;21.918;2022-09-29T23:33:51;10.0;;;9.0;;
22673;SDS011;11504;43.334;21.918;2022-09-29T23:38:28;10.0;;;9.0;;
22673;SDS011;11504;43.334;21.918;2022-09-29T23:43:05;10.0;;;9.0;;
22673;SDS011;11504;43.334;21.918;2022-09-29T23:47:41;10.0;;;9.0;;
22673;SDS011;11504;43.334;21.918;2022-09-29T23:52:18;10.0;;;9.0;;
22673;SDS011;11504;43.334;21.918;2022-09-29T23:56:56;10.0;;;9.0;;
